sensor_id;sensor_type;location;lat;lon;timestamp;pressure;altitude;pressure_sealevel;temperature;humidity
76694;BME280;69667;52.136;5.424;2023-05-24T00:01:54;102553.31;;;7.44;83.65
76694;BME280;69667;52.136;5.424;2023-05-24T00:04:22;102551.69;;;7.40;84.04
76694;BME280;69667;52.136;5.424;2023-05-24T00:06:51;102551.81;;;7.37;84.39
76694;BME280;69667;52.136;5.424;2023-05-24T00:09:20;102560.88;;;7.33;84.46
76694;BME280;69667;52.136;5.424;2023-05-24T00:11:47;102546.69;;;7.30;84.40
76694;BME280;69667;52.136;5.424;2023-05-24T00:14:14;102552.09;;;7.28;84.37
76694;BME280;69667;52.136;5.424;2023-05-24T00:16:40;102538.78;;;7.25;84.89
76694;BME280;69667;52.136;5.424;2023-05-24T00:19:07;102545.97;;;7.25;84.75
76694;BME280;69667;52.136;5.424;2023-05-24T00:21:36;102547.75;;;7.24;84.94
76694;BME280;69667;52.136;5.424;2023-05-24T00:24:03;102539.75;;;7.23;84.55
76694;BME280;69667;52.136;5.424;2023-05-24T00:26:30;102539.91;;;7.18;84.22
76694;BME280;69667;52.136;5.424;2023-05-24T00:28:57;102534.66;;;7.15;84.86
76694;BME280;69667;52.136;5.424;2023-05-24T00:31:23;102537.47;;;7.12;84.94
76694;BME280;69667;52.136;5.424;2023-05-24T00:33:50;102540.16;;;7.12;84.92
76694;BME280;69667;52.136;5.424;2023-05-24T00:36:17;102534.00;;;7.09;85.13
76694;BME280;69667;52.136;5.424;2023-05-24T00:38:46;102532.22;;;7.08;85.29
76694;BME280;69667;52.136;5.424;2023-05-24T00:41:14;102534.09;;;7.06;85.50
76694;BME280;69667;52.136;5.424;2023-05-24T00:43:41;102535.97;;;7.04;85.32
76694;BME280;69667;52.136;5.424;2023-05-24T00:46:25;102536.88;;;7.03;85.15
76694;BME280;69667;52.136;5.424;2023-05-24T00:48:53;102519.03;;;7.02;85.41
76694;BME280;69667;52.136;5.424;2023-05-24T00:51:20;102526.25;;;7.00;85.26
76694;BME280;69667;52.136;5.424;2023-05-24T00:53:47;102520.97;;;6.97;85.86
76694;BME280;69667;52.136;5.424;2023-05-24T00:56:15;102524.69;;;6.93;85.12
76694;BME280;69667;52.136;5.424;2023-05-24T00:58:43;102523.94;;;6.89;85.99
76694;BME280;69667;52.136;5.424;2023-05-24T01:01:10;102516.84;;;6.87;86.17
76694;BME280;69667;52.136;5.424;2023-05-24T01:03:37;102526.81;;;6.83;86.06
76694;BME280;69667;52.136;5.424;2023-05-24T01:06:06;102522.31;;;6.84;85.61
76694;BME280;69667;52.136;5.424;2023-05-24T01:14:17;102521.66;;;6.77;85.85
76694;BME280;69667;52.136;5.424;2023-05-24T01:17:04;102527.13;;;6.74;86.24
76694;BME280;69667;52.136;5.424;2023-05-24T01:25:16;102529.81;;;6.73;86.47
76694;BME280;69667;52.136;5.424;2023-05-24T01:27:45;102529.88;;;6.71;86.31
76694;BME280;69667;52.136;5.424;2023-05-24T01:30:12;102530.91;;;6.67;85.83
76694;BME280;69667;52.136;5.424;2023-05-24T01:32:39;102527.41;;;6.65;85.80
76694;BME280;69667;52.136;5.424;2023-05-24T01:35:07;102523.88;;;6.63;86.51
76694;BME280;69667;52.136;5.424;2023-05-24T01:37:34;102524.00;;;6.60;86.18
76694;BME280;69667;52.136;5.424;2023-05-24T01:40:01;102522.31;;;6.56;86.47
76694;BME280;69667;52.136;5.424;2023-05-24T01:42:55;102529.56;;;6.54;87.03
76694;BME280;69667;52.136;5.424;2023-05-24T01:45:39;102528.72;;;6.52;86.94
76694;BME280;69667;52.136;5.424;2023-05-24T01:48:30;102526.94;;;6.51;86.82
76694;BME280;69667;52.136;5.424;2023-05-24T01:51:04;102523.41;;;6.51;86.72
76694;BME280;69667;52.136;5.424;2023-05-24T01:53:33;102520.72;;;6.51;87.46
76694;BME280;69667;52.136;5.424;2023-05-24T01:56:03;102530.63;;;6.49;87.39
76694;BME280;69667;52.136;5.424;2023-05-24T01:58:31;102519.16;;;6.43;86.58
76694;BME280;69667;52.136;5.424;2023-05-24T02:00:59;102519.16;;;6.43;87.08
76694;BME280;69667;52.136;5.424;2023-05-24T02:03:26;102520.13;;;6.41;87.52
76694;BME280;69667;52.136;5.424;2023-05-24T02:05:54;102519.16;;;6.43;87.76
76694;BME280;69667;52.136;5.424;2023-05-24T02:08:20;102517.28;;;6.47;87.16
76694;BME280;69667;52.136;5.424;2023-05-24T02:10:47;102509.28;;;6.46;87.81
76694;BME280;69667;52.136;5.424;2023-05-24T02:13:14;102523.47;;;6.47;87.57
76694;BME280;69667;52.136;5.424;2023-05-24T02:15:43;102517.16;;;6.50;87.69
76694;BME280;69667;52.136;5.424;2023-05-24T02:18:12;102509.13;;;6.50;88.38
76694;BME280;69667;52.136;5.424;2023-05-24T02:20:39;102511.91;;;6.47;87.31
76694;BME280;69667;52.136;5.424;2023-05-24T02:23:06;102511.00;;;6.47;88.12
76694;BME280;69667;52.136;5.424;2023-05-24T02:25:35;102507.50;;;6.44;87.94
76694;BME280;69667;52.136;5.424;2023-05-24T02:28:02;102505.81;;;6.42;87.97
76694;BME280;69667;52.136;5.424;2023-05-24T02:30:29;102500.34;;;6.45;88.47
76694;BME280;69667;52.136;5.424;2023-05-24T02:32:55;102509.31;;;6.44;88.05
76694;BME280;69667;52.136;5.424;2023-05-24T02:35:22;102516.47;;;6.43;88.27
76694;BME280;69667;52.136;5.424;2023-05-24T02:37:49;102504.03;;;6.41;88.30
76694;BME280;69667;52.136;5.424;2023-05-24T02:40:16;102519.22;;;6.42;88.95
76694;BME280;69667;52.136;5.424;2023-05-24T02:42:42;102514.75;;;6.41;89.25
76694;BME280;69667;52.136;5.424;2023-05-24T02:45:09;102517.44;;;6.41;88.58
76694;BME280;69667;52.136;5.424;2023-05-24T02:47:36;102513.94;;;6.39;88.34
76694;BME280;69667;52.136;5.424;2023-05-24T02:50:02;102508.53;;;6.40;88.67
76694;BME280;69667;52.136;5.424;2023-05-24T02:52:29;102513.94;;;6.39;88.14
76694;BME280;69667;52.136;5.424;2023-05-24T02:54:56;102515.81;;;6.37;87.88
76694;BME280;69667;52.136;5.424;2023-05-24T02:57:23;102523.91;;;6.35;88.79
76694;BME280;69667;52.136;5.424;2023-05-24T02:59:49;102532.00;;;6.34;88.14
76694;BME280;69667;52.136;5.424;2023-05-24T03:02:16;102525.78;;;6.32;89.00
76694;BME280;69667;52.136;5.424;2023-05-24T03:04:44;102526.69;;;6.31;88.26
76694;BME280;69667;52.136;5.424;2023-05-24T03:07:11;102533.97;;;6.27;88.76
76694;BME280;69667;52.136;5.424;2023-05-24T03:09:39;102533.16;;;6.25;88.13
76694;BME280;69667;52.136;5.424;2023-05-24T03:12:05;102535.88;;;6.24;88.61
76694;BME280;69667;52.136;5.424;2023-05-24T03:14:33;102523.44;;;6.21;88.41
76694;BME280;69667;52.136;5.424;2023-05-24T03:16:59;102529.78;;;6.19;88.44
76694;BME280;69667;52.136;5.424;2023-05-24T03:19:26;102536.84;;;6.21;89.12
76694;BME280;69667;52.136;5.424;2023-05-24T03:21:53;102524.38;;;6.20;88.72
76694;BME280;69667;52.136;5.424;2023-05-24T03:24:20;102519.00;;;6.20;88.70
76694;BME280;69667;52.136;5.424;2023-05-24T03:26:47;102510.97;;;6.20;88.54
76694;BME280;69667;52.136;5.424;2023-05-24T03:29:15;102508.38;;;6.17;89.45
76694;BME280;69667;52.136;5.424;2023-05-24T03:31:43;102497.72;;;6.14;89.06
76694;BME280;69667;52.136;5.424;2023-05-24T03:34:09;102503.97;;;6.15;88.66
76694;BME280;69667;52.136;5.424;2023-05-24T03:36:37;102496.91;;;6.12;89.15
76694;BME280;69667;52.136;5.424;2023-05-24T03:39:04;102501.28;;;6.15;88.93
76694;BME280;69667;52.136;5.424;2023-05-24T03:41:38;102503.91;;;6.16;89.13
76694;BME280;69667;52.136;5.424;2023-05-24T03:44:05;102505.69;;;6.17;89.06
76694;BME280;69667;52.136;5.424;2023-05-24T03:46:31;102514.59;;;6.18;89.06
76694;BME280;69667;52.136;5.424;2023-05-24T03:48:59;102515.47;;;6.18;89.36
76694;BME280;69667;52.136;5.424;2023-05-24T03:51:26;102507.38;;;6.20;89.22
76694;BME280;69667;52.136;5.424;2023-05-24T03:53:55;102509.13;;;6.21;89.83
76694;BME280;69667;52.136;5.424;2023-05-24T03:56:25;102509.06;;;6.24;89.02
76694;BME280;69667;52.136;5.424;2023-05-24T03:58:52;102501.81;;;6.27;88.74
76694;BME280;69667;52.136;5.424;2023-05-24T04:01:18;102501.66;;;6.32;89.04
76694;BME280;69667;52.136;5.424;2023-05-24T04:03:59;102505.13;;;6.35;88.32
76694;BME280;69667;52.136;5.424;2023-05-24T04:06:26;102501.41;;;6.39;89.01
76694;BME280;69667;52.136;5.424;2023-05-24T04:08:59;102509.31;;;6.44;89.29
76694;BME280;69667;52.136;5.424;2023-05-24T04:11:26;102497.56;;;6.48;89.17
76694;BME280;69667;52.136;5.424;2023-05-24T04:13:54;102503.81;;;6.49;89.01
76694;BME280;69667;52.136;5.424;2023-05-24T04:16:22;102501.81;;;6.55;88.58
76694;BME280;69667;52.136;5.424;2023-05-24T04:18:55;102503.41;;;6.61;88.57
76694;BME280;69667;52.136;5.424;2023-05-24T04:21:22;102505.88;;;6.67;89.02
76694;BME280;69667;52.136;5.424;2023-05-24T04:23:51;102498.47;;;6.75;89.22
76694;BME280;69667;52.136;5.424;2023-05-24T04:26:18;102504.44;;;6.83;88.88
76694;BME280;69667;52.136;5.424;2023-05-24T04:28:46;102499.78;;;6.89;88.97
76694;BME280;69667;52.136;5.424;2023-05-24T04:31:13;102503.97;;;6.96;88.85
76694;BME280;69667;52.136;5.424;2023-05-24T04:33:41;102501.13;;;7.02;88.82
76694;BME280;69667;52.136;5.424;2023-05-24T04:36:08;102508.94;;;7.08;88.68
76694;BME280;69667;52.136;5.424;2023-05-24T04:38:36;102505.97;;;7.17;88.63
76694;BME280;69667;52.136;5.424;2023-05-24T04:41:04;102512.81;;;7.26;88.73
76694;BME280;69667;52.136;5.424;2023-05-24T04:43:33;102508.06;;;7.34;89.27
76694;BME280;69667;52.136;5.424;2023-05-24T04:46:00;102513.97;;;7.43;89.14
76694;BME280;69667;52.136;5.424;2023-05-24T04:48:27;102505.41;;;7.57;88.91
76694;BME280;69667;52.136;5.424;2023-05-24T04:50:55;102510.47;;;7.66;89.09
76694;BME280;69667;52.136;5.424;2023-05-24T04:53:21;102502.81;;;7.79;89.56
76694;BME280;69667;52.136;5.424;2023-05-24T04:55:48;102507.63;;;7.94;89.53
76694;BME280;69667;52.136;5.424;2023-05-24T04:58:16;102509.47;;;8.15;89.91
76694;BME280;69667;52.136;5.424;2023-05-24T05:00:43;102508.13;;;8.28;89.87
76694;BME280;69667;52.136;5.424;2023-05-24T05:03:10;102507.69;;;8.38;89.42
76694;BME280;69667;52.136;5.424;2023-05-24T05:05:37;102500.06;;;8.49;89.93
76694;BME280;69667;52.136;5.424;2023-05-24T05:08:05;102503.06;;;8.63;89.46
76694;BME280;69667;52.136;5.424;2023-05-24T05:10:32;102505.19;;;8.77;89.57
76694;BME280;69667;52.136;5.424;2023-05-24T05:12:58;102504.75;;;8.87;89.37
76694;BME280;69667;52.136;5.424;2023-05-24T05:15:27;102508.63;;;9.02;89.11
76694;BME280;69667;52.136;5.424;2023-05-24T05:17:53;102513.34;;;9.17;88.71
76694;BME280;69667;52.136;5.424;2023-05-24T05:20:20;102511.75;;;9.33;88.36
76694;BME280;69667;52.136;5.424;2023-05-24T05:22:47;102503.19;;;9.44;88.07
76694;BME280;69667;52.136;5.424;2023-05-24T05:25:14;102509.78;;;9.57;87.99
76694;BME280;69667;52.136;5.424;2023-05-24T05:27:41;102505.66;;;9.68;87.18
76694;BME280;69667;52.136;5.424;2023-05-24T05:30:08;102520.22;;;9.84;86.41
76694;BME280;69667;52.136;5.424;2023-05-24T05:32:34;102515.22;;;9.95;86.27
76694;BME280;69667;52.136;5.424;2023-05-24T05:35:02;102527.94;;;10.12;85.90
76694;BME280;69667;52.136;5.424;2023-05-24T05:37:28;102515.63;;;10.25;85.04
76694;BME280;69667;52.136;5.424;2023-05-24T05:39:56;102518.28;;;11.33;84.74
76694;BME280;69667;52.136;5.424;2023-05-24T05:42:26;102511.63;;;14.04;77.08
76694;BME280;69667;52.136;5.424;2023-05-24T05:44:53;102496.53;;;16.23;68.49
76694;BME280;69667;52.136;5.424;2023-05-24T05:47:19;102499.22;;;17.66;62.30
76694;BME280;69667;52.136;5.424;2023-05-24T05:49:46;102493.94;;;18.64;58.13
76694;BME280;69667;52.136;5.424;2023-05-24T05:52:15;102499.72;;;19.25;55.68
76694;BME280;69667;52.136;5.424;2023-05-24T05:54:41;102488.59;;;19.69;52.78
76694;BME280;69667;52.136;5.424;2023-05-24T05:57:08;102493.75;;;20.13;50.44
76694;BME280;69667;52.136;5.424;2023-05-24T05:59:36;102489.84;;;20.76;49.79
76694;BME280;69667;52.136;5.424;2023-05-24T06:02:06;102490.38;;;21.28;46.72
76694;BME280;69667;52.136;5.424;2023-05-24T06:04:36;102490.63;;;21.92;44.95
76694;BME280;69667;52.136;5.424;2023-05-24T06:07:03;102492.06;;;21.96;44.57
76694;BME280;69667;52.136;5.424;2023-05-24T06:09:29;102498.06;;;22.83;42.14
76694;BME280;69667;52.136;5.424;2023-05-24T06:11:56;102486.38;;;23.16;42.14
76694;BME280;69667;52.136;5.424;2023-05-24T06:14:22;102485.31;;;23.87;40.06
76694;BME280;69667;52.136;5.424;2023-05-24T06:16:50;102480.72;;;23.96;38.63
76694;BME280;69667;52.136;5.424;2023-05-24T06:19:19;102480.63;;;23.62;40.10
76694;BME280;69667;52.136;5.424;2023-05-24T06:21:49;102491.44;;;23.73;39.48
76694;BME280;69667;52.136;5.424;2023-05-24T06:24:17;102490.38;;;23.92;39.88
76694;BME280;69667;52.136;5.424;2023-05-24T06:26:47;102489.06;;;24.04;38.92
76694;BME280;69667;52.136;5.424;2023-05-24T06:29:14;102498.16;;;23.96;38.40
76694;BME280;69667;52.136;5.424;2023-05-24T06:31:41;102509.19;;;23.78;38.22
76694;BME280;69667;52.136;5.424;2023-05-24T06:34:09;102507.28;;;21.24;42.02
76694;BME280;69667;52.136;5.424;2023-05-24T06:36:35;102513.63;;;22.01;42.68
76694;BME280;69667;52.136;5.424;2023-05-24T06:39:06;102501.09;;;22.52;41.04
76694;BME280;69667;52.136;5.424;2023-05-24T06:41:33;102499.88;;;23.71;39.22
76694;BME280;69667;52.136;5.424;2023-05-24T06:44:00;102501.41;;;24.76;37.66
76694;BME280;69667;52.136;5.424;2023-05-24T06:46:27;102505.03;;;25.59;35.18
76694;BME280;69667;52.136;5.424;2023-05-24T06:48:53;102504.53;;;25.63;34.07
76694;BME280;69667;52.136;5.424;2023-05-24T06:51:20;102492.03;;;26.15;34.07
76694;BME280;69667;52.136;5.424;2023-05-24T06:53:47;102509.28;;;25.13;35.43
76694;BME280;69667;52.136;5.424;2023-05-24T06:56:13;102503.88;;;22.52;40.84
76694;BME280;69667;52.136;5.424;2023-05-24T06:58:41;102518.25;;;20.56;44.28
76694;BME280;69667;52.136;5.424;2023-05-24T07:01:07;102527.56;;;18.98;48.74
76694;BME280;69667;52.136;5.424;2023-05-24T07:03:34;102514.09;;;19.06;49.02
76694;BME280;69667;52.136;5.424;2023-05-24T07:06:01;102516.31;;;22.56;43.60
76694;BME280;69667;52.136;5.424;2023-05-24T07:08:28;102515.06;;;22.78;39.54
76694;BME280;69667;52.136;5.424;2023-05-24T07:10:55;102526.81;;;19.70;45.48
76694;BME280;69667;52.136;5.424;2023-05-24T07:13:22;102524.28;;;18.61;48.91
76694;BME280;69667;52.136;5.424;2023-05-24T07:15:48;102523.53;;;19.97;48.34
76694;BME280;69667;52.136;5.424;2023-05-24T07:18:15;102527.69;;;21.41;45.05
76694;BME280;69667;52.136;5.424;2023-05-24T07:20:41;102521.03;;;21.53;42.52
76694;BME280;69667;52.136;5.424;2023-05-24T07:23:08;102520.84;;;20.27;47.07
76694;BME280;69667;52.136;5.424;2023-05-24T07:25:35;102528.28;;;21.34;45.31
76694;BME280;69667;52.136;5.424;2023-05-24T07:28:02;102514.91;;;20.22;45.68
76694;BME280;69667;52.136;5.424;2023-05-24T07:30:29;102522.38;;;18.95;50.31
76694;BME280;69667;52.136;5.424;2023-05-24T07:32:58;102529.72;;;17.95;53.01
76694;BME280;69667;52.136;5.424;2023-05-24T07:35:25;102533.13;;;17.17;53.44
76694;BME280;69667;52.136;5.424;2023-05-24T07:37:53;102541.94;;;17.44;54.35
76694;BME280;69667;52.136;5.424;2023-05-24T07:40:20;102521.84;;;18.47;49.61
76694;BME280;69667;52.136;5.424;2023-05-24T07:42:48;102526.66;;;19.31;49.42
76694;BME280;69667;52.136;5.424;2023-05-24T07:45:18;102528.22;;;20.06;46.60
76694;BME280;69667;52.136;5.424;2023-05-24T07:47:44;102524.00;;;19.81;49.37
76694;BME280;69667;52.136;5.424;2023-05-24T07:50:13;102528.81;;;21.95;43.04
76694;BME280;69667;52.136;5.424;2023-05-24T07:52:43;102519.72;;;21.66;41.64
76694;BME280;69667;52.136;5.424;2023-05-24T07:55:12;102518.63;;;22.88;40.83
76694;BME280;69667;52.136;5.424;2023-05-24T07:57:39;102505.22;;;24.83;39.74
76694;BME280;69667;52.136;5.424;2023-05-24T08:00:06;102501.88;;;26.26;35.28
76694;BME280;69667;52.136;5.424;2023-05-24T08:02:42;102508.53;;;24.53;37.38
76694;BME280;69667;52.136;5.424;2023-05-24T08:05:11;102525.78;;;21.89;40.45
76694;BME280;69667;52.136;5.424;2023-05-24T08:07:38;102519.66;;;20.20;44.29
76694;BME280;69667;52.136;5.424;2023-05-24T08:10:08;102519.38;;;19.41;48.29
76694;BME280;69667;52.136;5.424;2023-05-24T08:12:35;102526.53;;;19.73;49.12
76694;BME280;69667;52.136;5.424;2023-05-24T08:15:02;102523.78;;;20.35;46.33
76694;BME280;69667;52.136;5.424;2023-05-24T08:17:29;102527.75;;;19.60;47.32
76694;BME280;69667;52.136;5.424;2023-05-24T08:19:57;102520.00;;;21.54;45.13
76694;BME280;69667;52.136;5.424;2023-05-24T08:22:23;102521.56;;;21.75;42.73
76694;BME280;69667;52.136;5.424;2023-05-24T08:24:50;102519.97;;;22.11;42.91
76694;BME280;69667;52.136;5.424;2023-05-24T08:27:17;102517.94;;;23.04;43.57
76694;BME280;69667;52.136;5.424;2023-05-24T08:29:44;102507.22;;;23.89;41.94
76694;BME280;69667;52.136;5.424;2023-05-24T08:32:11;102509.47;;;24.36;38.07
76694;BME280;69667;52.136;5.424;2023-05-24T08:34:38;102503.94;;;23.67;37.18
76694;BME280;69667;52.136;5.424;2023-05-24T08:37:04;102502.53;;;24.32;40.10
76694;BME280;69667;52.136;5.424;2023-05-24T08:39:32;102504.72;;;23.77;37.48
76694;BME280;69667;52.136;5.424;2023-05-24T08:41:58;102507.47;;;22.26;41.79
76694;BME280;69667;52.136;5.424;2023-05-24T08:44:29;102502.50;;;22.93;40.97
76694;BME280;69667;52.136;5.424;2023-05-24T08:46:57;102503.47;;;23.19;38.12
76694;BME280;69667;52.136;5.424;2023-05-24T08:49:23;102501.28;;;23.58;38.34
76694;BME280;69667;52.136;5.424;2023-05-24T08:51:50;102494.97;;;24.34;38.82
76694;BME280;69667;52.136;5.424;2023-05-24T08:54:18;102489.78;;;24.06;37.89
76694;BME280;69667;52.136;5.424;2023-05-24T08:56:46;102497.25;;;23.00;37.00
76694;BME280;69667;52.136;5.424;2023-05-24T08:59:14;102499.94;;;22.82;40.57
76694;BME280;69667;52.136;5.424;2023-05-24T09:01:41;102509.28;;;21.89;41.05
76694;BME280;69667;52.136;5.424;2023-05-24T09:04:08;102510.31;;;21.40;43.11
76694;BME280;69667;52.136;5.424;2023-05-24T09:06:35;102509.22;;;20.84;43.02
76694;BME280;69667;52.136;5.424;2023-05-24T09:09:02;102512.44;;;20.19;45.23
76694;BME280;69667;52.136;5.424;2023-05-24T09:11:31;102518.97;;;19.86;46.29
76694;BME280;69667;52.136;5.424;2023-05-24T09:13:59;102510.03;;;21.24;45.65
76694;BME280;69667;52.136;5.424;2023-05-24T09:16:26;102507.81;;;22.40;38.87
76694;BME280;69667;52.136;5.424;2023-05-24T09:18:53;102500.03;;;22.90;39.71
76694;BME280;69667;52.136;5.424;2023-05-24T09:21:20;102505.28;;;22.66;40.53
76694;BME280;69667;52.136;5.424;2023-05-24T09:23:48;102524.31;;;21.75;42.23
76694;BME280;69667;52.136;5.424;2023-05-24T09:26:14;102522.09;;;20.93;43.94
76694;BME280;69667;52.136;5.424;2023-05-24T09:28:41;102516.25;;;20.28;41.08
76694;BME280;69667;52.136;5.424;2023-05-24T09:31:09;102515.09;;;20.30;44.05
76694;BME280;69667;52.136;5.424;2023-05-24T09:33:38;102512.34;;;20.70;41.77
76694;BME280;69667;52.136;5.424;2023-05-24T09:36:05;102514.78;;;20.63;39.86
76694;BME280;69667;52.136;5.424;2023-05-24T09:38:34;102522.69;;;20.17;45.54
76694;BME280;69667;52.136;5.424;2023-05-24T09:41:06;102519.53;;;19.60;45.91
76694;BME280;69667;52.136;5.424;2023-05-24T09:43:34;102513.81;;;19.20;49.34
76694;BME280;69667;52.136;5.424;2023-05-24T09:46:15;102514.81;;;18.87;46.55
76694;BME280;69667;52.136;5.424;2023-05-24T09:48:58;102515.16;;;18.83;47.27
76694;BME280;69667;52.136;5.424;2023-05-24T09:51:35;102516.94;;;18.84;45.14
76694;BME280;69667;52.136;5.424;2023-05-24T09:54:02;102515.84;;;18.53;47.92
76694;BME280;69667;52.136;5.424;2023-05-24T09:56:31;102520.44;;;18.31;47.82
76694;BME280;69667;52.136;5.424;2023-05-24T09:59:04;102512.75;;;18.47;49.51
76694;BME280;69667;52.136;5.424;2023-05-24T10:01:31;102515.03;;;19.27;46.76
76694;BME280;69667;52.136;5.424;2023-05-24T10:03:59;102519.13;;;20.26;45.01
76694;BME280;69667;52.136;5.424;2023-05-24T10:06:29;102512.06;;;20.33;45.27
76694;BME280;69667;52.136;5.424;2023-05-24T10:09:00;102521.06;;;19.94;43.29
76694;BME280;69667;52.136;5.424;2023-05-24T10:11:27;102517.13;;;19.46;46.88
76694;BME280;69667;52.136;5.424;2023-05-24T10:13:54;102528.41;;;19.21;47.46
76694;BME280;69667;52.136;5.424;2023-05-24T10:16:21;102526.50;;;18.78;47.69
76694;BME280;69667;52.136;5.424;2023-05-24T10:18:48;102519.03;;;18.80;50.05
76694;BME280;69667;52.136;5.424;2023-05-24T10:21:16;102516.78;;;18.85;47.25
76694;BME280;69667;52.136;5.424;2023-05-24T10:23:50;102518.91;;;18.71;49.68
76694;BME280;69667;52.136;5.424;2023-05-24T10:26:18;102519.41;;;18.87;46.82
76694;BME280;69667;52.136;5.424;2023-05-24T10:28:47;102517.78;;;18.96;45.95
76694;BME280;69667;52.136;5.424;2023-05-24T10:31:46;102526.19;;;18.61;45.78
76694;BME280;69667;52.136;5.424;2023-05-24T10:34:15;102510.28;;;18.44;46.41
76694;BME280;69667;52.136;5.424;2023-05-24T10:36:43;102517.59;;;18.43;48.54
76694;BME280;69667;52.136;5.424;2023-05-24T10:39:10;102521.06;;;18.67;45.96
76694;BME280;69667;52.136;5.424;2023-05-24T10:41:38;102514.19;;;18.73;47.13
76694;BME280;69667;52.136;5.424;2023-05-24T10:44:11;102518.56;;;18.64;47.79
76694;BME280;69667;52.136;5.424;2023-05-24T10:47:10;102512.09;;;18.32;48.16
76694;BME280;69667;52.136;5.424;2023-05-24T10:49:46;102527.22;;;18.14;48.86
76694;BME280;69667;52.136;5.424;2023-05-24T10:52:13;102512.22;;;18.31;48.69
76694;BME280;69667;52.136;5.424;2023-05-24T10:54:40;102516.00;;;19.06;47.92
76694;BME280;69667;52.136;5.424;2023-05-24T10:57:36;102498.25;;;19.73;44.08
76694;BME280;69667;52.136;5.424;2023-05-24T11:00:24;102504.22;;;19.26;46.30
76694;BME280;69667;52.136;5.424;2023-05-24T11:03:08;102524.13;;;19.39;44.29
76694;BME280;69667;52.136;5.424;2023-05-24T11:05:50;102513.63;;;19.44;45.24
76694;BME280;69667;52.136;5.424;2023-05-24T11:08:29;102515.56;;;19.21;43.32
76694;BME280;69667;52.136;5.424;2023-05-24T11:11:25;102508.22;;;18.68;43.57
76694;BME280;69667;52.136;5.424;2023-05-24T11:13:59;102502.56;;;18.49;44.39
76694;BME280;69667;52.136;5.424;2023-05-24T11:16:36;102503.13;;;18.74;45.86
76694;BME280;69667;52.136;5.424;2023-05-24T11:19:30;102511.22;;;19.19;45.36
76694;BME280;69667;52.136;5.424;2023-05-24T11:22:08;102509.03;;;19.02;43.99
76694;BME280;69667;52.136;5.424;2023-05-24T11:24:35;102510.16;;;18.99;45.38
76694;BME280;69667;52.136;5.424;2023-05-24T11:27:03;102511.22;;;19.19;46.90
76694;BME280;69667;52.136;5.424;2023-05-24T11:29:30;102511.53;;;19.36;46.17
76694;BME280;69667;52.136;5.424;2023-05-24T11:32:16;102511.09;;;19.20;43.13
76694;BME280;69667;52.136;5.424;2023-05-24T11:34:47;102507.72;;;19.17;44.02
76694;BME280;69667;52.136;5.424;2023-05-24T11:37:15;102509.00;;;19.13;44.52
76694;BME280;69667;52.136;5.424;2023-05-24T11:39:48;102505.03;;;19.69;43.93
76694;BME280;69667;52.136;5.424;2023-05-24T11:42:15;102505.22;;;19.36;43.52
76694;BME280;69667;52.136;5.424;2023-05-24T11:44:42;102508.63;;;19.49;44.14
76694;BME280;69667;52.136;5.424;2023-05-24T11:47:11;102505.53;;;19.63;43.71
76694;BME280;69667;52.136;5.424;2023-05-24T11:49:38;102509.03;;;19.65;42.90
76694;BME280;69667;52.136;5.424;2023-05-24T11:52:05;102503.56;;;19.44;44.74
76694;BME280;69667;52.136;5.424;2023-05-24T11:54:31;102499.19;;;20.03;45.64
76694;BME280;69667;52.136;5.424;2023-05-24T11:57:00;102502.53;;;20.77;45.36
76694;BME280;69667;52.136;5.424;2023-05-24T11:59:28;102501.19;;;21.01;44.17
76694;BME280;69667;52.136;5.424;2023-05-24T12:02:02;102505.22;;;20.97;44.54
76694;BME280;69667;52.136;5.424;2023-05-24T12:04:30;102502.91;;;20.53;42.91
76694;BME280;69667;52.136;5.424;2023-05-24T12:06:58;102494.63;;;20.34;45.34
76694;BME280;69667;52.136;5.424;2023-05-24T12:09:25;102502.91;;;20.53;43.37
76694;BME280;69667;52.136;5.424;2023-05-24T12:11:57;102497.78;;;20.69;42.32
76694;BME280;69667;52.136;5.424;2023-05-24T12:14:27;102503.22;;;20.99;42.45
76694;BME280;69667;52.136;5.424;2023-05-24T12:16:56;102494.13;;;21.18;43.33
76694;BME280;69667;52.136;5.424;2023-05-24T12:19:24;102494.22;;;20.88;40.85
76694;BME280;69667;52.136;5.424;2023-05-24T12:22:02;102502.19;;;20.51;42.72
76694;BME280;69667;52.136;5.424;2023-05-24T12:24:30;102494.16;;;20.29;46.40
76694;BME280;69667;52.136;5.424;2023-05-24T12:27:03;102491.28;;;20.10;44.20
76694;BME280;69667;52.136;5.424;2023-05-24T12:29:38;102489.38;;;19.60;45.70
76694;BME280;69667;52.136;5.424;2023-05-24T12:32:10;102502.06;;;19.40;47.57
76694;BME280;69667;52.136;5.424;2023-05-24T12:34:40;102502.00;;;19.31;49.53
76694;BME280;69667;52.136;5.424;2023-05-24T12:37:11;102494.88;;;19.39;46.43
76694;BME280;69667;52.136;5.424;2023-05-24T12:39:39;102497.69;;;19.49;44.50
76694;BME280;69667;52.136;5.424;2023-05-24T12:42:09;102490.72;;;19.65;46.00
76694;BME280;69667;52.136;5.424;2023-05-24T12:44:37;102486.69;;;19.90;44.10
76694;BME280;69667;52.136;5.424;2023-05-24T12:47:04;102486.97;;;19.87;45.22
76694;BME280;69667;52.136;5.424;2023-05-24T12:49:32;102499.09;;;20.14;44.97
76694;BME280;69667;52.136;5.424;2023-05-24T12:51:58;102484.94;;;20.40;44.85
76694;BME280;69667;52.136;5.424;2023-05-24T12:54:27;102492.13;;;21.29;44.39
76694;BME280;69667;52.136;5.424;2023-05-24T12:56:55;102492.81;;;21.51;45.73
76694;BME280;69667;52.136;5.424;2023-05-24T12:59:24;102491.94;;;21.21;40.97
76694;BME280;69667;52.136;5.424;2023-05-24T13:01:50;102491.03;;;20.83;41.87
76694;BME280;69667;52.136;5.424;2023-05-24T13:04:19;102489.78;;;20.57;45.35
76694;BME280;69667;52.136;5.424;2023-05-24T13:06:47;102493.56;;;20.75;44.20
76694;BME280;69667;52.136;5.424;2023-05-24T13:09:14;102497.66;;;20.80;44.90
76694;BME280;69667;52.136;5.424;2023-05-24T13:11:43;102488.88;;;20.96;46.60
76694;BME280;69667;52.136;5.424;2023-05-24T13:14:10;102496.38;;;20.84;42.91
76694;BME280;69667;52.136;5.424;2023-05-24T13:16:37;102496.94;;;20.39;42.65